Absarokee, Montana
Current Conditions -  °F | °C
As of 1:53 AM on Wednesday 28 Jan 2015 (Local Time) from KBIL Reporting Station
Broken Clouds Broken Clouds  
Wind Chill: 42°   Ceiling: 13000
Heat Index: 48°   Visibility: 10mi
Dew Point: 31°   Wind: 14mph
Humidity: 52%   Direction: 240°WSW
Pressure: 29.9"   Gusts: NA
Location:  45.53°N, 109.43°W
Report Text: KBIL 280853Z 24012KT 10SM BKN130 09/M01 A2990 RMK AO2 SLP112 T00891006 53008
Loading
Personal Weather Stations






























Interactive Weather Map New forecast layout! Learn more

10-Day Weather Forecast

Advertisements
Track Severe Weather on mobile